Menu Close Menu
Station Historical Data
Daily Summary for November 18, 2017 Units:  Metric    English   Both
« Previous Day
Next Day »
Daily Weekly Monthly Yearly Custom
  High: Low: Average:
Temperature: 18.9 °C 5.2 °C 12.8 °C
Dew Point: 16.1 °C 3.7 °C 10.1 °C
Humidity: 93% 71% 84%
Wind Speed: 11.1km/h 0km/h 2.6km/h
Wind Gust: 11.1km/h - -
Wind- - NW
Pressure: 1019.2 hPa 1004.6 hPa -
Precipitation: 8.64 mm    
Historical Graphs
 
 
Tabular Data for November 18, 2017
Time Temperature Dew Point Pressure Wind Wind Speed Wind Gust Humidity Rainfall Rate (Hourly) solar Conditions
00:03 7.6 °C 5.4 °C 1019.2 hPa Calm     86% 0 mm WeatherDisplay:10.37 W/m2 SCT
00:08 7.7 °C 5.3 °C 1019.2 hPa Calm     85% 0 mm WeatherDisplay:10.37 W/m2 SCT
00:13 7.8 °C 5.4 °C 1019.2 hPa Calm     85% 0 mm WeatherDisplay:10.37 W/m2 SCT
00:18 7.8 °C 5.2 °C 1019.2 hPa Calm     84% 0 mm WeatherDisplay:10.37 W/m2 SCT
00:24 7.9 °C 5.4 °C 1019.2 hPa Calm     84% 0 mm WeatherDisplay:10.37 W/m2 SCT
00:29 8 °C 5.4 °C 1019.2 hPa Calm     84% 0 mm WeatherDisplay:10.37 W/m2 SCT
00:34 7.9 °C 5.2 °C 1019.2 hPa Calm     83% 0 mm WeatherDisplay:10.37 W/m2 SCT
00:39 7.8 °C 5.1 °C 1018.8 hPa Calm     83% 0 mm WeatherDisplay:10.37 W/m2 SCT
00:44 7.8 °C 5.1 °C 1019.2 hPa Calm     83% 0 mm WeatherDisplay:10.37 W/m2 SCT
00:49 7.7 °C 5.2 °C 1019.2 hPa Calm     84% 0 mm WeatherDisplay:10.37 W/m2 SCT
00:54 7.7 °C 5.1 °C 1019.2 hPa Calm     84% 0 mm WeatherDisplay:10.37 W/m2 SCT
00:59 7.5 °C 5.2 °C 1019.2 hPa Calm     85% 0 mm WeatherDisplay:10.37 W/m2 SCT
01:04 7.3 °C 5 °C 1019.2 hPa Calm     85% 0 mm WeatherDisplay:10.37 W/m2 SCT
01:09 7.2 °C 5 °C 1018.8 hPa Calm     86% 0 mm WeatherDisplay:10.37 W/m2 SCT
01:14 6.9 °C 4.8 °C 1018.8 hPa Calm     86% 0 mm WeatherDisplay:10.37 W/m2 SCT
01:19 6.8 °C 4.8 °C 1018.8 hPa Calm     87% 0 mm WeatherDisplay:10.37 W/m2 SCT
01:24 6.8 °C 4.8 °C 1018.8 hPa Calm     87% 0 mm WeatherDisplay:10.37 W/m2 SCT
01:30 6.7 °C 4.7 °C 1018.8 hPa Calm     87% 0 mm WeatherDisplay:10.37 W/m2 SCT
01:35 6.7 °C 4.8 °C 1018.8 hPa Calm     88% 0 mm WeatherDisplay:10.37 W/m2 SCT
01:40 6.6 °C 4.8 °C 1018.8 hPa Calm     88% 0 mm WeatherDisplay:10.37 W/m2 SCT
01:45 6.6 °C 4.8 °C 1018.8 hPa Calm     88% 0 mm WeatherDisplay:10.37 W/m2 SCT
01:50 6.6 °C 4.7 °C 1018.8 hPa Calm     88% 0 mm WeatherDisplay:10.37 W/m2 SCT
01:55 6.5 °C 4.7 °C 1018.8 hPa Calm     88% 0 mm WeatherDisplay:10.37 W/m2 SCT
01:56 6.5 °C 4.7 °C 1018.8 hPa Calm     88% 0 mm WeatherDisplay:10.37 W/m2 SCT
02:02 6.4 °C 4.6 °C 1018.8 hPa Calm     88% 0 mm WeatherDisplay:10.37 W/m2 SCT
02:07 6.4 °C 4.6 °C 1018.5 hPa Calm     88% 0 mm WeatherDisplay:10.37 W/m2 SCT
02:12 6.3 °C 4.6 °C 1018.5 hPa Calm     89% 0 mm WeatherDisplay:10.37 W/m2 SCT
02:17 6.2 °C 4.6 °C 1018.5 hPa Calm     89% 0 mm WeatherDisplay:10.37 W/m2 SCT
02:22 6.2 °C 4.6 °C 1018.5 hPa Calm     89% 0 mm WeatherDisplay:10.37 W/m2 SCT
02:27 6.2 °C 4.6 °C 1018.5 hPa Calm     89% 0 mm WeatherDisplay:10.37 W/m2 SCT
02:32 6.3 °C 4.7 °C 1018.5 hPa Calm     89% 0 mm WeatherDisplay:10.37 W/m2 SCT
02:37 6.4 °C 4.6 °C 1018.5 hPa Calm     88% 0 mm WeatherDisplay:10.37 W/m2 SCT
02:42 6.3 °C 4.5 °C 1018.5 hPa Calm     88% 0 mm WeatherDisplay:10.37 W/m2 SCT
02:47 6.3 °C 4.6 °C 1018.5 hPa Calm     89% 0 mm WeatherDisplay:10.37 W/m2 SCT
02:52 6.4 °C 4.7 °C 1018.2 hPa Calm     89% 0 mm WeatherDisplay:10.37 W/m2 SCT
02:57 6.4 °C 4.6 °C 1018.2 hPa Calm     88% 0 mm WeatherDisplay:10.37 W/m2 SCT
03:02 6.4 °C 4.6 °C 1018.2 hPa Calm     88% 0 mm WeatherDisplay:10.37 W/m2 SCT
03:07 6.4 °C 4.6 °C 1018.2 hPa Calm     88% 0 mm WeatherDisplay:10.37 W/m2 SCT
03:13 6.3 °C 4.4 °C 1018.5 hPa Calm     88% 0 mm WeatherDisplay:10.37 W/m2 SCT
03:18 6.3 °C 4.4 °C 1018.5 hPa Calm     88% 0 mm WeatherDisplay:10.37 W/m2 SCT
03:23 6.2 °C 4.3 °C 1018.5 hPa Calm     88% 0 mm WeatherDisplay:10.37 W/m2 SCT
03:28 6.2 °C 4.3 °C 1018.5 hPa Calm     88% 0 mm WeatherDisplay:10.37 W/m2 SCT
03:33 6.1 °C 4.3 °C 1018.2 hPa Calm     88% 0 mm WeatherDisplay:10.37 W/m2 SCT
03:38 6.1 °C 4.4 °C 1018.5 hPa Calm     89% 0 mm WeatherDisplay:10.37 W/m2 SCT
03:43 6.1 °C 4.4 °C 1018.2 hPa Calm     89% 0 mm WeatherDisplay:10.37 W/m2 SCT
03:48 5.9 °C 4.3 °C 1018.2 hPa Calm     89% 0 mm WeatherDisplay:10.37 W/m2 SCT
03:54 5.8 °C 4.2 °C 1018.2 hPa Calm     89% 0 mm WeatherDisplay:10.37 W/m2 SCT
03:59 5.7 °C 4.1 °C 1018.2 hPa Calm     89% 0 mm WeatherDisplay:10.37 W/m2 SCT
04:04 5.7 °C 4.2 °C 1017.8 hPa Calm     90% 0 mm WeatherDisplay:10.37 W/m2 SCT
04:09 5.7 °C 4.2 °C 1017.8 hPa Calm     90% 0 mm WeatherDisplay:10.37 W/m2 SCT
04:14 5.7 °C 4.2 °C 1018.2 hPa Calm     90% 0 mm WeatherDisplay:10.37 W/m2 SCT
04:19 5.8 °C 4.3 °C 1017.8 hPa Calm     90% 0 mm WeatherDisplay:10.37 W/m2 SCT
04:24 5.8 °C 4.3 °C 1017.8 hPa Calm     90% 0 mm WeatherDisplay:10.37 W/m2 SCT
04:29 5.8 °C 4.3 °C 1017.8 hPa Calm     90% 0 mm WeatherDisplay:10.37 W/m2 SCT
04:34 5.7 °C 4.2 °C 1017.8 hPa Calm     90% 0 mm WeatherDisplay:10.37 W/m2 SCT
04:40 5.7 °C 4.2 °C 1017.8 hPa Calm     90% 0 mm WeatherDisplay:10.37 W/m2 SCT
04:45 5.7 °C 4.2 °C 1018.2 hPa Calm     90% 0 mm WeatherDisplay:10.37 W/m2 SCT
04:50 5.6 °C 4.1 °C 1017.8 hPa Calm     90% 0 mm WeatherDisplay:10.37 W/m2 SCT
04:55 5.6 °C 4.1 °C 1017.8 hPa Calm     90% 0 mm WeatherDisplay:10.37 W/m2 SCT
05:00 5.6 °C 4.1 °C 1017.8 hPa Calm     90% 0 mm WeatherDisplay:10.37 W/m2 SCT
05:05 5.5 °C 4 °C 1017.8 hPa Calm     90% 0 mm WeatherDisplay:10.37 W/m2 SCT
05:10 5.4 °C 3.9 °C 1018.2 hPa Calm     90% 0 mm WeatherDisplay:10.37 W/m2 SCT
05:15 5.4 °C 3.9 °C 1018.2 hPa Calm     90% 0 mm WeatherDisplay:10.37 W/m2 SCT
05:20 5.4 °C 3.9 °C 1017.8 hPa Calm     90% 0 mm WeatherDisplay:10.37 W/m2 SCT
05:25 5.3 °C 3.8 °C 1017.8 hPa Calm     90% 0 mm WeatherDisplay:10.37 W/m2 SCT
05:30 5.2 °C 3.7 °C 1017.8 hPa Calm     90% 0 mm WeatherDisplay:10.37 W/m2 SCT
05:35 5.2 °C 3.7 °C 1017.8 hPa Calm     90% 0 mm WeatherDisplay:10.37 W/m2 SCT
05:40 5.2 °C 3.7 °C 1017.8 hPa Calm     90% 0 mm WeatherDisplay:10.37 W/m2 SCT
05:46 5.2 °C 3.8 °C 1017.5 hPa Calm     91% 0 mm WeatherDisplay:10.37 W/m2 SCT
05:51 5.2 °C 3.8 °C 1017.5 hPa Calm     91% 0 mm WeatherDisplay:10.37 W/m2 SCT
05:56 5.2 °C 3.8 °C 1017.5 hPa Calm     91% 0 mm WeatherDisplay:10.37 W/m2 SCT
06:01 5.2 °C 3.9 °C 1017.8 hPa Calm     91% 0 mm WeatherDisplay:10.37 W/m2 SCT
06:11 5.4 °C 4.1 °C 1017.5 hPa Calm     91% 0 mm WeatherDisplay:10.37 W/m2 SCT
06:16 5.4 °C 4.1 °C 1017.8 hPa Calm     91% 0 mm WeatherDisplay:10.37 W/m2 SCT
06:21 5.4 °C 4.1 °C 1017.8 hPa Calm     91% 0 mm WeatherDisplay:10.37 W/m2 CLR
06:26 5.5 °C 4.2 °C 1017.8 hPa Calm     91% 0 mm WeatherDisplay:10.37 W/m2 CLR
06:31 5.6 °C 4.3 °C 1017.8 hPa Calm     91% 0 mm WeatherDisplay:10.37 W/m2 CLR
06:36 5.6 °C 4.3 °C 1017.5 hPa Calm     91% 0 mm WeatherDisplay:10.37 W/m2 CLR
06:41 5.6 °C 4.3 °C 1017.5 hPa Calm     91% 0 mm WeatherDisplay:10.37 W/m2 CLR
06:46 5.7 °C 4.3 °C 1017.8 hPa Calm     91% 0 mm WeatherDisplay:10.37 W/m2 CLR
06:52 5.7 °C 4.3 °C 1017.5 hPa Calm     91% 0 mm WeatherDisplay:10.37 W/m2 CLR
06:57 5.7 °C 4.3 °C 1017.5 hPa Calm     91% 0 mm WeatherDisplay:10.37 W/m2 CLR
07:02 5.7 °C 4.3 °C 1017.5 hPa Calm     91% 0 mm WeatherDisplay:10.37 W/m2 CLR
07:07 5.7 °C 4.3 °C 1017.5 hPa Calm     91% 0 mm WeatherDisplay:10.37 W/m2 CLR
07:12 5.7 °C 4.4 °C 1017.8 hPa Calm     91% 0 mm WeatherDisplay:10.37 W/m2 FEW
07:17 5.7 °C 4.4 °C 1017.8 hPa Calm     91% 0 mm WeatherDisplay:10.37 W/m2 FEW
07:22 5.7 °C 4.3 °C 1017.5 hPa Calm     91% 0 mm WeatherDisplay:10.37 W/m2 BKN
07:27 5.7 °C 4.5 °C 1017.8 hPa Calm     92% 0 mm WeatherDisplay:10.37 W/m2 BKN
07:32 5.8 °C 4.6 °C 1017.8 hPa Calm     92% 0 mm WeatherDisplay:10.37 W/m2 BKN
07:37 5.9 °C 4.7 °C 1017.8 hPa Calm     92% 0 mm WeatherDisplay:10.37 W/m2 BKN
07:42 6 °C 4.8 °C 1017.8 hPa Calm     92% 0 mm WeatherDisplay:10.37 W/m2 BKN
07:47 6.2 °C 4.9 °C 1017.5 hPa Calm     92% 0 mm WeatherDisplay:10.37 W/m2 BKN
07:52 6.4 °C 5.2 °C 1017.8 hPa Calm     92% 0 mm WeatherDisplay:10.37 W/m2 BKN
07:58 6.5 °C 5.3 °C 1017.8 hPa Calm     92% 0 mm WeatherDisplay:10.37 W/m2 BKN
08:03 6.7 °C 5.7 °C 1017.8 hPa Calm     93% 0 mm WeatherDisplay:10.37 W/m2 OVC
08:08 6.9 °C 5.7 °C 1017.8 hPa Calm     92% 0 mm WeatherDisplay:10.37 W/m2 OVC
08:13 7.1 °C 6 °C 1017.5 hPa Calm     93% 0 mm WeatherDisplay:10.37 W/m2 OVC
08:18 7.2 °C 5.9 °C 1017.5 hPa Calm     92% 0 mm WeatherDisplay:10.37 W/m2 OVC
08:23 7.3 °C 6.1 °C 1017.5 hPa Calm     92% 0 mm WeatherDisplay:10.37 W/m2 OVC
08:28 7.6 °C 6.6 °C 1017.5 hPa Calm     93% 0 mm WeatherDisplay:10.37 W/m2 OVC
08:33 7.9 °C 6.8 °C 1017.5 hPa Calm     93% 0 mm WeatherDisplay:10.37 W/m2 OVC
08:38 8.2 °C 7.1 °C 1017.5 hPa Calm     93% 0 mm WeatherDisplay:10.37 W/m2 OVC
08:43 8.4 °C 7.4 °C 1017.5 hPa Calm     93% 0 mm WeatherDisplay:10.37 W/m2 OVC
08:48 8.7 °C 7.7 °C 1017.2 hPa Calm     93% 0 mm WeatherDisplay:10.37 W/m2 OVC
08:53 9 °C 7.9 °C 1017.2 hPa NNW 1.9 km/h   93% 0 mm WeatherDisplay:10.37 W/m2 OVC
08:59 9.2 °C 8.2 °C 1017.2 hPa NNW 1.9 km/h   93% 0 mm WeatherDisplay:10.37 W/m2 OVC
09:04 9.4 °C 8.2 °C 1017.2 hPa Calm     92% 0 mm WeatherDisplay:10.37 W/m2 OVC
09:09 9.7 °C 8.4 °C 1017.2 hPa NNW 1.9 km/h   92% 0 mm WeatherDisplay:10.37 W/m2 OVC
09:14 9.8 °C 8.4 °C 1016.8 hPa NNW 1.9 km/h   91% 0 mm WeatherDisplay:10.37 W/m2 OVC
09:19 10 °C 8.6 °C 1016.8 hPa NNW 1.9 km/h   91% 0 mm WeatherDisplay:10.37 W/m2 OVC
09:24 10.2 °C 8.8 °C 1017.2 hPa Calm     91% 0 mm WeatherDisplay:10.37 W/m2 OVC
09:29 10.4 °C 8.9 °C 1017.2 hPa NNW 1.9 km/h   90% 0 mm WeatherDisplay:10.37 W/m2 OVC
09:34 10.6 °C 8.9 °C 1016.8 hPa NNW 1.9 km/h   89% 0 mm WeatherDisplay:10.37 W/m2 OVC
09:39 10.7 °C 9 °C 1016.8 hPa NNW 1.9 km/h   89% 0 mm WeatherDisplay:10.37 W/m2 OVC
09:44 10.9 °C 9.2 °C 1016.8 hPa NNW 1.9 km/h   89% 0 mm WeatherDisplay:10.37 W/m2 OVC
09:49 11.2 °C 9.3 °C 1016.8 hPa NNW 1.9 km/h   88% 0 mm WeatherDisplay:10.37 W/m2 OVC
09:54 11.4 °C 9.4 °C 1016.8 hPa NW 1.9 km/h   88% 0 mm WeatherDisplay:10.37 W/m2 BKN
09:59 11.6 °C 9.3 °C 1016.5 hPa Calm   0.5 km/h 86% 0 mm WeatherDisplay:10.37 W/m2 BKN
10:04 11.8 °C 9.6 °C 1016.8 hPa NW 1.9 km/h   86% 0 mm WeatherDisplay:10.37 W/m2 OVC
10:10 12 °C 9.6 °C 1016.5 hPa NW 1.9 km/h   85% 0 mm WeatherDisplay:10.37 W/m2 OVC
10:15 12.3 °C 9.8 °C 1016.5 hPa Calm     85% 0 mm WeatherDisplay:10.37 W/m2 OVC
10:20 12.6 °C 10 °C 1016.1 hPa NW 3.7 km/h 3.7 km/h 84% 0 mm WeatherDisplay:10.37 W/m2 OVC
10:25 13.2 °C 10.3 °C 1016.1 hPa NW 3.7 km/h   83% 0 mm WeatherDisplay:10.37 W/m2 OVC
10:30 13.9 °C 10.6 °C 1016.1 hPa NW 3.7 km/h   80% 0 mm WeatherDisplay:10.37 W/m2 OVC
10:35 14.4 °C 10.7 °C 1015.8 hPa NW 1.9 km/h 1.9 km/h 78% 0 mm WeatherDisplay:10.37 W/m2 OVC
10:40 15 °C 11 °C 1016.1 hPa NW 3.7 km/h 3.7 km/h 77% 0 mm WeatherDisplay:10.37 W/m2 OVC
10:45 15.4 °C 10.8 °C 1015.8 hPa NW 3.7 km/h 3.7 km/h 74% 0 mm WeatherDisplay:10.37 W/m2 OVC
10:50 15.8 °C 11.2 °C 1015.5 hPa NW 3.7 km/h 3.7 km/h 74% 0 mm WeatherDisplay:10.37 W/m2 OVC
10:55 16.1 °C 10.8 °C 1015.8 hPa WNW 5.6 km/h 5.6 km/h 71% 0 mm WeatherDisplay:10.37 W/m2 OVC
11:00 16.1 °C 11 °C 1015.5 hPa WNW 5.6 km/h   72% 0 mm WeatherDisplay:10.37 W/m2 OVC
11:05 16.1 °C 11 °C 1015.5 hPa West 5.6 km/h 5.6 km/h 72% 0 mm WeatherDisplay:10.37 W/m2 OVC
11:10 16.2 °C 11.1 °C 1015.1 hPa WNW 3.7 km/h 3.7 km/h 72% 0 mm WeatherDisplay:10.37 W/m2 OVC
11:16 16.3 °C 11.2 °C 1015.1 hPa WNW 5.6 km/h   72% 0 mm WeatherDisplay:10.37 W/m2 BKN
11:21 16.2 °C 11.2 °C 1015.1 hPa NW 5.6 km/h   72% 0 mm WeatherDisplay:10.37 W/m2 BKN
11:26 16.3 °C 11.4 °C 1015.1 hPa WNW 3.7 km/h   73% 0 mm WeatherDisplay:10.37 W/m2 BKN
11:31 16.3 °C 11.5 °C 1014.8 hPa WNW 3.7 km/h 3.7 km/h 73% 0 mm WeatherDisplay:10.37 W/m2 BKN
11:36 16.5 °C 11.4 °C 1014.8 hPa NW 3.7 km/h 3.7 km/h 72% 0 mm WeatherDisplay:10.37 W/m2 BKN
11:41 16.6 °C 11.7 °C 1014.4 hPa NW 5.6 km/h 5.6 km/h 73% 0 mm WeatherDisplay:10.37 W/m2 BKN
11:46 16.7 °C 11.8 °C 1014.4 hPa NNW 5.6 km/h   73% 0 mm WeatherDisplay:10.37 W/m2 BKN
11:56 16.8 °C 11.9 °C 1014.1 hPa WNW 3.7 km/h 3.7 km/h 73% 0 mm WeatherDisplay:10.37 W/m2 BKN
12:01 17.1 °C 12.2 °C 1013.8 hPa NW 1.9 km/h   73% 0 mm WeatherDisplay:10.37 W/m2 BKN
12:06 17.2 °C 12.3 °C 1013.8 hPa NW 3.7 km/h   73% 0 mm WeatherDisplay:10.37 W/m2 BKN
12:11 17.1 °C 12.2 °C 1013.4 hPa WNW 3.7 km/h   73% 0 mm WeatherDisplay:10.37 W/m2 BKN
12:16 17 °C 12.3 °C 1013.4 hPa WNW 3.7 km/h   74% 0 mm WeatherDisplay:10.37 W/m2 BKN
12:21 16.9 °C 12.5 °C 1013.4 hPa WNW 3.7 km/h   75% 0 mm WeatherDisplay:10.37 W/m2 BKN
12:27 16.8 °C 12.4 °C 1013.1 hPa Calm     75% 0 mm WeatherDisplay:10.37 W/m2 BKN
12:32 16.7 °C 12.4 °C 1013.1 hPa NW 1.9 km/h 1.9 km/h 76% 0 mm WeatherDisplay:10.37 W/m2 BKN
12:37 16.6 °C 12.8 °C 1012.8 hPa NW 1.9 km/h   78% 0 mm WeatherDisplay:10.37 W/m2 BKN
12:42 16.6 °C 12.8 °C 1012.8 hPa WNW 1.9 km/h   78% 0 mm WeatherDisplay:10.37 W/m2 BKN
12:47 16.6 °C 12.8 °C 1012.4 hPa Calm     78% 0 mm WeatherDisplay:10.37 W/m2 BKN
12:52 16.6 °C 12.8 °C 1012.4 hPa WNW 1.9 km/h   78% 0 mm WeatherDisplay:10.37 W/m2 BKN
12:57 16.8 °C 13.2 °C 1012.4 hPa WNW 1.9 km/h   79% 0 mm WeatherDisplay:10.37 W/m2 BKN
13:02 17.4 °C 13.4 °C 1012.1 hPa WNW 3.7 km/h 3.7 km/h 77% 0 mm WeatherDisplay:10.37 W/m2 OVC
13:07 17.8 °C 13.6 °C 1012.1 hPa WNW 3.7 km/h 3.7 km/h 76% 0 mm WeatherDisplay:10.37 W/m2 OVC
13:12 18.2 °C 13.5 °C 1011.7 hPa NW 3.7 km/h 3.7 km/h 74% 0 mm WeatherDisplay:10.37 W/m2 OVC
13:17 18.4 °C 13.4 °C 1011.7 hPa WNW 3.7 km/h 3.7 km/h 73% 0 mm WeatherDisplay:10.37 W/m2 OVC
13:22 18.4 °C 13.3 °C 1011.7 hPa WNW 3.7 km/h 3.7 km/h 72% 0 mm WeatherDisplay:10.37 W/m2 OVC
13:27 18.4 °C 13.7 °C 1011.4 hPa WNW 3.7 km/h   74% 0 mm WeatherDisplay:10.37 W/m2 OVC
13:32 18.4 °C 13.4 °C 1011.4 hPa NW 3.7 km/h 3.7 km/h 73% 0 mm WeatherDisplay:10.37 W/m2 OVC
13:38 18.4 °C 13.7 °C 1011.4 hPa WNW 1.9 km/h 1.9 km/h 74% 0 mm WeatherDisplay:10.37 W/m2 OVC
13:43 18.4 °C 13.4 °C 1011.1 hPa NW 3.7 km/h   73% 0 mm WeatherDisplay:10.37 W/m2 OVC
13:48 18.3 °C 13.6 °C 1011.1 hPa NW 3.7 km/h   74% 0 mm WeatherDisplay:10.37 W/m2 OVC
13:53 18.2 °C 13.7 °C 1011.1 hPa NNW 1.9 km/h 1.9 km/h 75% 0 mm WeatherDisplay:10.37 W/m2 OVC
13:58 18.1 °C 13.6 °C 1011.1 hPa NW 3.7 km/h   75% 0 mm WeatherDisplay:10.37 W/m2 OVC
14:03 18.1 °C 13.6 °C 1010.7 hPa WNW 3.7 km/h   75% 0 mm WeatherDisplay:10.37 W/m2 OVC
14:08 18.1 °C 13.6 °C 1010.7 hPa WNW 1.9 km/h 1.9 km/h 75% 0 mm WeatherDisplay:10.37 W/m2 OVC
14:13 18.1 °C 13.8 °C 1010.7 hPa WNW 1.9 km/h 1.9 km/h 76% 0 mm WeatherDisplay:10.37 W/m2 OVC
14:18 18.1 °C 13.8 °C 1010.4 hPa WNW 1.9 km/h 1.9 km/h 76% 0 mm WeatherDisplay:10.37 W/m2 OVC
14:23 18.1 °C 13.8 °C 1010.4 hPa NW 3.7 km/h   76% 0 mm WeatherDisplay:10.37 W/m2 OVC
14:28 18.1 °C 13.8 °C 1010.4 hPa NW 3.7 km/h   76% 0 mm WeatherDisplay:10.37 W/m2 OVC
14:33 18.1 °C 13.8 °C 1010.4 hPa NW 1.9 km/h   76% 0 mm WeatherDisplay:10.37 W/m2 OVC
14:38 18.2 °C 13.9 °C 1010 hPa NW 1.9 km/h   76% 0 mm WeatherDisplay:10.37 W/m2 OVC
14:43 18.2 °C 13.9 °C 1010 hPa NW 1.9 km/h   76% 0 mm WeatherDisplay:10.37 W/m2 OVC
14:49 18.2 °C 13.9 °C 1010 hPa NW 1.9 km/h   76% 0 mm WeatherDisplay:10.37 W/m2 OVC
14:54 18.2 °C 14.1 °C 1010 hPa NW 1.9 km/h   77% 0 mm WeatherDisplay:10.37 W/m2 OVC
14:59 18.2 °C 14.1 °C 1010 hPa Calm     77% 0 mm WeatherDisplay:10.37 W/m2 OVC
15:04 18.2 °C 14.1 °C 1010 hPa WNW 1.9 km/h   77% 0 mm WeatherDisplay:10.37 W/m2 OVC
15:09 18.1 °C 14 °C 1010 hPa WNW 1.9 km/h   77% 0 mm WeatherDisplay:10.37 W/m2 OVC
15:14 18.1 °C 13.9 °C 1010 hPa WNW 1.9 km/h   77% 0 mm WeatherDisplay:10.37 W/m2 OVC
15:19 18.1 °C 14.2 °C 1010 hPa WNW 1.9 km/h   78% 0 mm WeatherDisplay:10.37 W/m2 OVC
15:24 18 °C 14.1 °C 1010 hPa WNW 1.9 km/h   78% 0 mm WeatherDisplay:10.37 W/m2 OVC
15:29 17.9 °C 14.1 °C 1010 hPa NW 1.9 km/h   78% 0 mm WeatherDisplay:10.37 W/m2 OVC
15:34 17.9 °C 14.2 °C 1010 hPa Calm     79% 0 mm WeatherDisplay:10.37 W/m2 OVC
15:39 17.9 °C 14.2 °C 1010 hPa Calm     79% 0 mm WeatherDisplay:10.37 W/m2 OVC
15:44 17.9 °C 14.2 °C 1009.7 hPa Calm     79% 0 mm WeatherDisplay:10.37 W/m2 OVC
15:49 17.9 °C 14.2 °C 1010 hPa NNW 1.9 km/h   79% 0 mm WeatherDisplay:10.37 W/m2 OVC
15:54 17.9 °C 14.2 °C 1009.7 hPa WNW 1.9 km/h   79% 0 mm WeatherDisplay:10.37 W/m2 OVC
16:00 17.8 °C 14.2 °C 1009.7 hPa Calm     79% 0 mm WeatherDisplay:10.37 W/m2 OVC
16:05 17.8 °C 14.1 °C 1009.7 hPa Calm   1.6 km/h 79% 0 mm WeatherDisplay:10.37 W/m2 OVC
16:10 17.8 °C 14.2 °C 1009.7 hPa Calm   1.6 km/h 79% 0 mm WeatherDisplay:10.37 W/m2 OVC
16:15 17.9 °C 14.2 °C 1009.7 hPa WNW 1.9 km/h   79% 0 mm WeatherDisplay:10.37 W/m2 OVC
16:20 17.8 °C 14.2 °C 1009.4 hPa WNW 1.9 km/h 1.9 km/h 79% 0 mm WeatherDisplay:10.37 W/m2 OVC
16:25 17.9 °C 14.2 °C 1009.4 hPa WNW 7.4 km/h 7.4 km/h 79% 0 mm WeatherDisplay:10.37 W/m2 OVC
16:30 18.1 °C 14.2 °C 1009.4 hPa NW 7.4 km/h 7.4 km/h 78% 0 mm WeatherDisplay:10.37 W/m2 OVC
16:35 18.2 °C 14.3 °C 1009 hPa NW 7.4 km/h 7.4 km/h 78% 0 mm WeatherDisplay:10.37 W/m2 OVC
16:40 18.2 °C 14.3 °C 1009.4 hPa NW 3.7 km/h   78% 0 mm WeatherDisplay:10.37 W/m2 OVC
16:45 18.2 °C 14.3 °C 1009.4 hPa NW 1.9 km/h   78% 0 mm WeatherDisplay:10.37 W/m2 OVC
16:50 18.1 °C 14.2 °C 1009.4 hPa West 1.9 km/h   78% 0 mm WeatherDisplay:10.37 W/m2 OVC
16:55 18.1 °C 14.2 °C 1009 hPa West 3.7 km/h 3.7 km/h 78% 0 mm WeatherDisplay:10.37 W/m2 OVC
17:00 18.1 °C 14.2 °C 1009 hPa WNW 3.7 km/h 3.7 km/h 78% 0 mm WeatherDisplay:10.37 W/m2 OVC
17:06 18.1 °C 14.2 °C 1009 hPa NW 5.6 km/h   78% 0 mm WeatherDisplay:10.37 W/m2 OVC
17:11 18.1 °C 14.2 °C 1009 hPa NW 5.6 km/h 5.6 km/h 78% 0 mm WeatherDisplay:10.37 W/m2 OVC
17:16 18.1 °C 14.2 °C 1008.7 hPa NW 3.7 km/h 3.7 km/h 78% 0 mm WeatherDisplay:10.37 W/m2 OVC
17:21 18 °C 14.1 °C 1008.7 hPa NW 3.7 km/h 3.7 km/h 78% 0 mm WeatherDisplay:10.37 W/m2 OVC
17:26 18.1 °C 14.2 °C 1008.7 hPa NW 3.7 km/h 3.7 km/h 78% 0 mm WeatherDisplay:10.37 W/m2 OVC
17:31 18.1 °C 14.2 °C 1008.7 hPa NW 3.7 km/h   78% 0 mm WeatherDisplay:10.37 W/m2 OVC
17:36 17.9 °C 14.2 °C 1008.7 hPa NW 3.7 km/h   79% 0 mm WeatherDisplay:10.37 W/m2 OVC
17:41 17.9 °C 14.2 °C 1008.7 hPa NW 1.9 km/h   79% 0 mm WeatherDisplay:10.37 W/m2 OVC
17:46 17.9 °C 14.2 °C 1008.4 hPa NW 3.7 km/h   79% 0 mm WeatherDisplay:10.37 W/m2 OVC
17:51 18 °C 14.3 °C 1008.4 hPa WNW 3.7 km/h   79% 0 mm WeatherDisplay:10.37 W/m2 OVC
17:56 17.9 °C 14.2 °C 1008.4 hPa WNW 1.9 km/h   79% 0 mm WeatherDisplay:10.37 W/m2 OVC
18:01 17.9 °C 14.2 °C 1008.4 hPa NW 3.7 km/h 3.7 km/h 79% 0 mm WeatherDisplay:10.37 W/m2 OVC
18:06 18.1 °C 14.3 °C 1008.4 hPa NW 3.7 km/h   79% 0 mm WeatherDisplay:10.37 W/m2 OVC
18:11 18.1 °C 14.3 °C 1008.4 hPa WNW 3.7 km/h 3.7 km/h 79% 0 mm WeatherDisplay:10.37 W/m2 OVC
18:17 18.1 °C 14.4 °C 1008.4 hPa NW 3.7 km/h 3.7 km/h 79% 0 mm WeatherDisplay:10.37 W/m2 OVC
18:22 18.1 °C 14.4 °C 1008 hPa NW 3.7 km/h 3.7 km/h 79% 0 mm WeatherDisplay:10.37 W/m2 OVC
18:27 18.1 °C 14.4 °C 1008 hPa NW 3.7 km/h 3.7 km/h 79% 0 mm WeatherDisplay:10.37 W/m2 OVC
18:32 18.1 °C 14.4 °C 1008 hPa WNW 3.7 km/h 3.7 km/h 79% 0 mm WeatherDisplay:10.37 W/m2 OVC
18:37 18.2 °C 14.4 °C 1007.7 hPa WNW 5.6 km/h 5.6 km/h 79% 0 mm WeatherDisplay:10.37 W/m2 OVC
18:42 18.2 °C 14.4 °C 1007.3 hPa NW 5.6 km/h 5.6 km/h 79% 0 mm WeatherDisplay:10.37 W/m2 OVC
18:47 18.2 °C 14.5 °C 1007.3 hPa NW 5.6 km/h 5.6 km/h 79% 0 mm WeatherDisplay:10.37 W/m2 OVC
18:52 18.2 °C 14.4 °C 1007.3 hPa NW 5.6 km/h 5.6 km/h 79% 0 mm WeatherDisplay:10.37 W/m2 OVC
18:57 18.1 °C 14.4 °C 1007.3 hPa WNW 5.6 km/h 5.6 km/h 79% 0 mm WeatherDisplay:10.37 W/m2 OVC
19:02 18.1 °C 14.6 °C 1007.3 hPa NW 5.6 km/h 5.6 km/h 80% 0 mm WeatherDisplay:10.37 W/m2 OVC
19:07 18 °C 14.5 °C 1007.3 hPa NW 1.9 km/h 1.9 km/h 80% 0 mm WeatherDisplay:10.37 W/m2 OVC
19:12 18 °C 14.5 °C 1007.3 hPa NW 3.7 km/h 3.7 km/h 80% 0 mm WeatherDisplay:10.37 W/m2 OVC
19:17 18.1 °C 14.6 °C 1007.3 hPa WNW 3.7 km/h 3.7 km/h 80% 0 mm WeatherDisplay:10.37 W/m2 OVC
19:22 18.1 °C 14.6 °C 1007.3 hPa WNW 5.6 km/h   80% 0 mm WeatherDisplay:10.37 W/m2 OVC
19:27 18.1 °C 14.6 °C 1007 hPa WNW 5.6 km/h 5.6 km/h 80% 0 mm WeatherDisplay:10.37 W/m2 OVC
19:32 18.2 °C 14.7 °C 1007.3 hPa NW 5.6 km/h 5.6 km/h 80% 0 mm WeatherDisplay:10.37 W/m2 CLR
19:38 18.2 °C 14.7 °C 1007.3 hPa NW 5.6 km/h 5.6 km/h 80% 0 mm WeatherDisplay:10.37 W/m2 CLR
19:43 18.2 °C 14.8 °C 1007.3 hPa NW 5.6 km/h 5.6 km/h 81% 0 mm WeatherDisplay:10.37 W/m2 OVC
19:48 18.2 °C 14.9 °C 1007.3 hPa NW 5.6 km/h   81% 0 mm WeatherDisplay:10.37 W/m2 OVC
19:53 18.2 °C 14.9 °C 1007.3 hPa NW 5.6 km/h   81% 0 mm WeatherDisplay:10.37 W/m2 OVC
19:58 18.2 °C 14.8 °C 1007.3 hPa NW 3.7 km/h   81% 0 mm WeatherDisplay:10.37 W/m2 OVC
20:00 18.2 °C 14.8 °C 1007.3 hPa NW 3.7 km/h 3.7 km/h 81% 0 mm WeatherDisplay:10.37 W/m2 OVC
20:05 18.3 °C 15.2 °C 1007.3 hPa WNW 7.4 km/h 7.4 km/h 82% 0 mm WeatherDisplay:10.37 W/m2 OVC
20:10 18.3 °C 15.2 °C 1007 hPa WNW 7.4 km/h 7.4 km/h 82% 0 mm WeatherDisplay:10.37 W/m2 OVC
20:15 18.3 °C 15.2 °C 1006.7 hPa WNW 7.4 km/h 7.4 km/h 82% 0 mm WeatherDisplay:10.37 W/m2 OVC
20:20 18.3 °C 15.2 °C 1006.3 hPa NW 7.4 km/h 7.4 km/h 82% 0 mm WeatherDisplay:10.37 W/m2 OVC
20:25 18.3 °C 15.3 °C 1006.3 hPa WNW 7.4 km/h 7.4 km/h 83% 0 mm WeatherDisplay:10.37 W/m2 OVC
20:30 18.3 °C 15.3 °C 1006.3 hPa NW 5.6 km/h 5.6 km/h 83% 0 mm WeatherDisplay:10.37 W/m2 OVC
20:36 18.3 °C 15.3 °C 1006 hPa NW 5.6 km/h   83% 0 mm WeatherDisplay:10.37 W/m2 OVC
20:41 18.3 °C 15.3 °C 1005.6 hPa NW 7.4 km/h 7.4 km/h 83% 0 mm WeatherDisplay:10.37 W/m2 OVC
20:46 18.3 °C 15.4 °C 1005.6 hPa NW 7.4 km/h 7.4 km/h 83% 0 mm WeatherDisplay:10.37 W/m2 OVC
20:51 18.3 °C 15.4 °C 1005.6 hPa NW 7.4 km/h 7.4 km/h 83% 0 mm WeatherDisplay:10.37 W/m2 OVC
20:56 18.3 °C 15.3 °C 1005.6 hPa NW 3.7 km/h 3.7 km/h 83% 0 mm WeatherDisplay:10.37 W/m2 OVC
21:01 18.3 °C 15.3 °C 1005.3 hPa NW 3.7 km/h 3.7 km/h 83% 0 mm WeatherDisplay:10.37 W/m2 OVC
21:06 18.4 °C 15.4 °C 1005 hPa NW 5.6 km/h 5.6 km/h 83% 0 mm WeatherDisplay:10.37 W/m2 OVC
21:11 18.4 °C 15.5 °C 1005 hPa NW 5.6 km/h 5.6 km/h 83% 0 mm WeatherDisplay:10.37 W/m2 OVC
21:16 18.6 °C 15.6 °C 1005 hPa WNW 7.4 km/h 7.4 km/h 83% 0 mm WeatherDisplay:10.37 W/m2 OVC
21:21 18.7 °C 15.6 °C 1005 hPa WNW 7.4 km/h 7.4 km/h 82% 0 mm WeatherDisplay:10.37 W/m2 OVC
21:27 18.7 °C 15.6 °C 1004.6 hPa WNW 7.4 km/h 7.4 km/h 82% 0 mm WeatherDisplay:10.37 W/m2 OVC
21:32 18.8 °C 15.7 °C 1005 hPa NW 5.6 km/h 5.6 km/h 82% 0 mm WeatherDisplay:10.37 W/m2 OVC
21:37 18.9 °C 15.7 °C 1005 hPa NW 7.4 km/h 7.4 km/h 82% 0 mm WeatherDisplay:10.37 W/m2 OVC
21:42 18.9 °C 15.7 °C 1005 hPa NW 7.4 km/h 7.4 km/h 82% 0 mm WeatherDisplay:10.37 W/m2 OVC
21:47 18.8 °C 15.9 °C 1005 hPa NW 7.4 km/h 7.4 km/h 83% 0 mm WeatherDisplay:10.37 W/m2 OVC
21:52 18.8 °C 15.8 °C 1005.3 hPa NNW 7.4 km/h 7.4 km/h 83% 0 mm WeatherDisplay:10.37 W/m2 OVC
21:57 18.9 °C 15.7 °C 1005 hPa NW 7.4 km/h 7.4 km/h 82% 0 mm WeatherDisplay:10.37 W/m2 OVC
22:02 18.9 °C 15.9 °C 1005 hPa NW 7.4 km/h 7.4 km/h 83% 0 mm WeatherDisplay:10.37 W/m2 OVC
22:07 18.7 °C 16.1 °C 1005.3 hPa NNW 7.4 km/h 7.4 km/h 85% 0 mm WeatherDisplay:10.37 W/m2 OVC
22:12 18.1 °C 15.6 °C 1007 hPa North 11.1 km/h 11.1 km/h 85% 2.79 mm WeatherDisplay:10.37 W/m2 RA
22:20 16.5 °C 14.2 °C 1007 hPa WNW 11.1 km/h 11.1 km/h 86% 4.32 mm WeatherDisplay:10.37 W/m2 RA
22:25 15.7 °C 13.6 °C 1007.3 hPa WSW 11.1 km/h 11.1 km/h 87% 5.33 mm WeatherDisplay:10.37 W/m2 -RA
22:27 15.6 °C 13.6 °C 1007.3 hPa West 11.1 km/h 11.1 km/h 88% 5.59 mm WeatherDisplay:10.37 W/m2 -RA
22:29 15.4 °C 13.4 °C 1007.3 hPa West 11.1 km/h 11.1 km/h 88% 6.35 mm WeatherDisplay:10.37 W/m2 -RA
22:34 15.1 °C 13.3 °C 1007.3 hPa WNW 9.3 km/h 9.3 km/h 89% 7.37 mm WeatherDisplay:10.37 W/m2 +RA
22:35 15 °C 13.2 °C 1007.3 hPa WNW 9.3 km/h 9.3 km/h 89% 7.37 mm WeatherDisplay:10.37 W/m2 +RA
22:40 14.8 °C 13.2 °C 1007.3 hPa West 11.1 km/h 11.1 km/h 90% 7.62 mm WeatherDisplay:10.37 W/m2 +RA
22:45 14.6 °C 13 °C 1007 hPa NW 11.1 km/h 11.1 km/h 90% 7.87 mm WeatherDisplay:10.37 W/m2 OVC
22:50 14.4 °C 12.6 °C 1007 hPa NW 7.4 km/h 7.4 km/h 89% 7.87 mm WeatherDisplay:10.37 W/m2 OVC
22:55 14.2 °C 12.4 °C 1007.3 hPa WNW 7.4 km/h 7.4 km/h 89% 7.87 mm WeatherDisplay:10.37 W/m2 -RA
23:01 14.2 °C 12.4 °C 1007.3 hPa WNW 3.7 km/h 3.7 km/h 89% 7.87 mm WeatherDisplay:10.37 W/m2 -RA
23:06 14.1 °C 12.5 °C 1007.3 hPa WNW 3.7 km/h 3.7 km/h 90% 7.87 mm WeatherDisplay:10.37 W/m2 -RA
23:11 14 °C 12.4 °C 1007.7 hPa WNW 5.6 km/h   90% 6.35 mm WeatherDisplay:10.37 W/m2 -RA
23:16 14 °C 12.6 °C 1007.7 hPa WNW 5.6 km/h 5.6 km/h 91% 3.81 mm WeatherDisplay:10.37 W/m2 BKN
23:31 13.8 °C 12.4 °C 1008.7 hPa WNW 7.4 km/h 7.4 km/h 91% 1.27 mm WeatherDisplay:10.37 W/m2 -DZ
23:36 13.7 °C 12.1 °C 1008.4 hPa WNW 7.4 km/h 7.4 km/h 90% 0.76 mm WeatherDisplay:10.37 W/m2 -DZ
23:41 13.4 °C 11.8 °C 1008.4 hPa WNW 5.6 km/h 5.6 km/h 90% 0.76 mm WeatherDisplay:10.37 W/m2 -DZ
23:46 13.3 °C 11.7 °C 1008.4 hPa West 5.6 km/h 5.6 km/h 90% 0.76 mm WeatherDisplay:10.37 W/m2 -DZ
23:52 13.1 °C 11.4 °C 1008.7 hPa WNW 5.6 km/h 5.6 km/h 90% 0.76 mm WeatherDisplay:10.37 W/m2 -DZ
Piedmont Bend
Compliments of Weather Underground - 4 mb